createdAt,value
2019-04-07T00:01:18.464Z,26.17
2019-04-07T00:03:48.334Z,23.13
2019-04-07T00:06:17.815Z,26.47
2019-04-07T00:08:47.528Z,26.30
2019-04-07T00:11:17.664Z,25.53
2019-04-07T00:13:47.167Z,27.90
2019-04-07T00:16:16.939Z,27.47
2019-04-07T00:18:47.044Z,25.43
2019-04-07T00:21:16.867Z,26.43
2019-04-07T00:23:46.322Z,25.33
2019-04-07T00:26:19.136Z,29.53
2019-04-07T00:28:49.804Z,30.73
2019-04-07T00:31:19.427Z,29.43
2019-04-07T00:33:48.893Z,31.30
2019-04-07T00:36:18.961Z,28.40
2019-04-07T00:38:48.924Z,30.63
2019-04-07T00:41:18.479Z,26.67
2019-04-07T00:43:48.061Z,27.50
2019-04-07T00:46:17.944Z,26.07
2019-04-07T00:48:47.499Z,27.53
2019-04-07T00:51:16.971Z,26.43
2019-04-07T00:53:46.468Z,26.73
2019-04-07T00:56:15.922Z,27.10
2019-04-07T00:58:45.703Z,27.67
2019-04-07T01:01:16.842Z,25.87
2019-04-07T01:03:46.296Z,28.33
2019-04-07T01:06:15.737Z,26.00
2019-04-07T01:08:45.694Z,29.53
2019-04-07T01:11:15.729Z,29.03
2019-04-07T01:13:45.274Z,27.70
2019-04-07T01:16:14.686Z,29.10
2019-04-07T01:18:44.234Z,26.93
2019-04-07T01:21:13.879Z,29.17
2019-04-07T01:23:43.639Z,30.07
2019-04-07T01:26:13.807Z,27.93
2019-04-07T01:28:46.296Z,26.70
2019-04-07T01:31:15.787Z,25.60
2019-04-07T01:33:45.318Z,28.30
2019-04-07T01:36:17.453Z,30.30
2019-04-07T01:38:47.455Z,27.27
2019-04-07T01:41:19.518Z,27.50
2019-04-07T01:43:57.527Z,30.57
2019-04-07T01:46:28.600Z,27.90
2019-04-07T01:49:06.663Z,28.53
2019-04-07T01:51:47.868Z,29.50
2019-04-07T01:54:33.657Z,27.83
2019-04-07T01:57:20.198Z,27.00
2019-04-07T01:59:51.952Z,27.50
2019-04-07T02:02:35.575Z,28.17
2019-04-07T02:05:25.352Z,31.40
2019-04-07T02:08:05.558Z,29.73
2019-04-07T02:10:42.922Z,28.67
2019-04-07T02:13:19.860Z,32.57
2019-04-07T02:15:57.725Z,28.33
2019-04-07T02:18:28.926Z,29.10
2019-04-07T02:21:00.096Z,27.27
2019-04-07T02:23:33.982Z,33.40
2019-04-07T02:26:06.043Z,28.03
2019-04-07T02:28:37.233Z,28.57
2019-04-07T02:31:25.863Z,30.57
2019-04-07T02:34:05.597Z,36.00
2019-04-07T02:36:37.574Z,31.77
2019-04-07T02:39:09.214Z,30.07
2019-04-07T02:41:40.437Z,35.47
2019-04-07T02:44:15.432Z,32.93
2019-04-07T02:46:49.635Z,35.67
2019-04-07T02:49:33.818Z,33.40
2019-04-07T02:52:11.127Z,37.60
2019-04-07T02:54:59.239Z,33.07
2019-04-07T02:57:36.556Z,41.80
2019-04-07T03:00:12.001Z,37.50
2019-04-07T03:02:55.835Z,39.37
2019-04-07T03:05:27.076Z,41.33
2019-04-07T03:07:58.299Z,38.40
2019-04-07T03:10:36.456Z,31.63
2019-04-07T03:13:14.514Z,34.63
2019-04-07T03:15:48.759Z,31.63
2019-04-07T03:18:20.216Z,34.13
2019-04-07T03:20:55.794Z,30.87
2019-04-07T03:23:32.959Z,32.33
2019-04-07T03:26:11.044Z,31.27
2019-04-07T03:28:47.945Z,31.57
2019-04-07T03:31:32.159Z,33.27
2019-04-07T03:34:06.119Z,32.20
2019-04-07T03:37:16.162Z,33.77
2019-04-07T03:39:24.481Z,29.73
2019-04-07T03:41:55.743Z,30.83
2019-04-07T03:44:29.648Z,32.00
2019-04-07T03:47:01.476Z,29.53
2019-04-07T03:49:41.965Z,34.47
2019-04-07T03:52:25.145Z,34.00
2019-04-07T03:55:02.284Z,34.67
2019-04-07T03:57:46.348Z,30.23
2019-04-07T04:01:11.563Z,30.30
2019-04-07T04:03:59.006Z,30.67
2019-04-07T04:06:47.246Z,31.73
2019-04-07T04:09:37.938Z,31.53
2019-04-07T04:12:22.813Z,30.17
2019-04-07T04:15:10.571Z,31.43
2019-04-07T04:17:40.093Z,32.53
2019-04-07T04:20:10.589Z,31.80
2019-04-07T04:22:40.254Z,30.37
2019-04-07T04:25:10.778Z,30.73
2019-04-07T04:27:41.965Z,36.83
2019-04-07T04:30:12.267Z,35.63
2019-04-07T04:32:42.102Z,34.90
2019-04-07T04:35:12.967Z,33.57
2019-04-07T04:37:48.117Z,34.63
2019-04-07T04:40:14.175Z,34.57
2019-04-07T04:42:44.340Z,35.33
2019-04-07T04:45:14.027Z,32.87
2019-04-07T04:47:43.469Z,34.40
2019-04-07T04:50:13.047Z,32.60
2019-04-07T04:52:42.822Z,31.10
2019-04-07T04:55:13.273Z,37.90
2019-04-07T04:57:42.775Z,32.57
2019-04-07T05:00:13.512Z,34.37
2019-04-07T05:02:44.181Z,39.00
2019-04-07T05:05:13.923Z,37.33
2019-04-07T05:07:54.019Z,29.80
2019-04-07T05:10:14.747Z,33.80
2019-04-07T05:12:44.603Z,33.53
2019-04-07T05:15:14.740Z,30.87
2019-04-07T05:17:44.586Z,37.73
2019-04-07T05:20:14.679Z,37.23
2019-04-07T05:22:44.493Z,33.67
2019-04-07T05:25:14.054Z,41.00
2019-04-07T05:27:43.443Z,33.43
2019-04-07T05:30:13.040Z,33.50
2019-04-07T05:32:43.125Z,36.63
2019-04-07T05:35:13.207Z,35.20
2019-04-07T05:37:43.326Z,32.27
2019-04-07T05:40:14.023Z,33.27
2019-04-07T05:42:43.490Z,29.40
2019-04-07T05:45:13.091Z,35.60
2019-04-07T05:47:47.320Z,35.10
2019-04-07T05:50:14.423Z,38.47
2019-04-07T05:52:44.509Z,34.83
2019-04-07T05:55:14.310Z,32.20
2019-04-07T05:57:44.202Z,38.67
2019-04-07T06:00:16.540Z,31.70
2019-04-07T06:02:45.786Z,29.73
2019-04-07T06:05:16.188Z,30.33
2019-04-07T06:07:47.011Z,35.63
2019-04-07T06:10:16.745Z,31.97
2019-04-07T06:12:47.366Z,37.03
2019-04-07T06:15:21.561Z,31.50
2019-04-07T06:17:49.083Z,30.67
2019-04-07T06:20:18.960Z,34.70
2019-04-07T06:22:52.837Z,34.70
2019-04-07T06:25:19.576Z,34.73
2019-04-07T06:27:49.073Z,34.27
2019-04-07T06:30:19.525Z,34.23
2019-04-07T06:32:49.020Z,33.33
2019-04-07T06:35:19.267Z,33.40
2019-04-07T06:37:49.916Z,34.80
2019-04-07T06:40:20.644Z,37.33
2019-04-07T06:42:50.605Z,36.37
2019-04-07T06:45:22.761Z,34.70
2019-04-07T06:47:55.237Z,34.67
2019-04-07T06:50:49.392Z,33.17
2019-04-07T06:53:18.641Z,38.77
2019-04-07T06:56:04.957Z,35.73
2019-04-07T06:58:51.489Z,38.17
2019-04-07T07:01:32.294Z,34.83
2019-04-07T07:04:22.295Z,33.13
2019-04-07T07:06:53.420Z,40.83
2019-04-07T07:09:26.428Z,32.93
2019-04-07T07:12:19.186Z,34.50
2019-04-07T07:14:58.369Z,37.00
2019-04-07T07:17:33.160Z,37.80
2019-04-07T07:20:05.683Z,30.50
2019-04-07T07:22:40.200Z,29.30
2019-04-07T07:25:10.337Z,34.13
2019-04-07T07:27:41.712Z,34.73
2019-04-07T07:30:11.045Z,32.93
2019-04-07T07:32:40.961Z,32.43
2019-04-07T07:35:15.006Z,35.50
2019-04-07T07:37:41.794Z,33.47
2019-04-07T07:40:12.383Z,33.63
2019-04-07T07:42:43.103Z,29.43
2019-04-07T07:45:14.006Z,31.40
2019-04-07T07:47:43.817Z,36.67
2019-04-07T07:50:13.611Z,32.40
2019-04-07T07:52:44.158Z,33.87
2019-04-07T07:55:14.253Z,33.67
2019-04-07T07:57:43.845Z,31.57
2019-04-07T08:00:13.711Z,31.83
2019-04-07T08:02:43.244Z,31.07
2019-04-07T08:05:13.445Z,33.47
2019-04-07T08:07:46.804Z,29.93
2019-04-07T08:10:15.735Z,31.00
2019-04-07T08:12:47.216Z,31.23
2019-04-07T08:15:22.852Z,30.37
2019-04-07T08:17:50.931Z,28.53
2019-04-07T08:20:22.044Z,30.40
2019-04-07T08:22:51.607Z,31.13
2019-04-07T08:25:25.052Z,30.97
2019-04-07T08:27:55.412Z,31.10
2019-04-07T08:30:25.058Z,30.60
2019-04-07T08:32:57.654Z,31.70
2019-04-07T08:35:25.894Z,33.33
2019-04-07T08:37:55.633Z,29.97
2019-04-07T08:40:25.309Z,30.97
2019-04-07T08:42:55.068Z,32.37
2019-04-07T08:45:26.710Z,29.63
2019-04-07T08:47:55.730Z,31.20
2019-04-07T08:50:27.710Z,31.33
2019-04-07T08:52:56.456Z,31.03
2019-04-07T08:55:25.983Z,32.60
2019-04-07T08:57:56.194Z,35.63
2019-04-07T09:00:28.306Z,32.43
2019-04-07T09:03:03.903Z,30.73
2019-04-07T09:05:31.098Z,32.13
2019-04-07T09:08:03.589Z,31.60
2019-04-07T09:10:51.414Z,33.80
2019-04-07T09:13:20.913Z,30.10
2019-04-07T09:16:04.655Z,32.73
2019-04-07T09:18:57.787Z,35.57
2019-04-07T09:21:38.660Z,30.27
2019-04-07T09:24:18.181Z,27.80
2019-04-07T09:26:58.834Z,30.67
2019-04-07T09:29:31.237Z,28.90
2019-04-07T09:32:11.966Z,27.80
2019-04-07T09:34:43.140Z,32.60
2019-04-07T09:37:22.100Z,25.37
2019-04-07T09:40:09.372Z,25.70
2019-04-07T09:42:46.656Z,25.07
2019-04-07T09:45:29.929Z,26.40
2019-04-07T09:48:02.061Z,25.00
2019-04-07T09:50:33.505Z,25.77
2019-04-07T09:53:07.313Z,22.52
2019-04-07T09:55:38.415Z,23.53
2019-04-07T09:58:25.180Z,23.53
2019-04-07T10:01:07.803Z,20.73
2019-04-07T10:03:55.592Z,20.25
2019-04-07T10:06:26.841Z,20.23
2019-04-07T10:09:01.085Z,21.30
2019-04-07T10:11:39.671Z,20.50
2019-04-07T10:14:10.848Z,18.67
2019-04-07T10:16:50.789Z,18.85
2019-04-07T10:19:39.730Z,17.57
2019-04-07T10:22:13.998Z,17.93
2019-04-07T10:24:48.309Z,19.50
2019-04-07T10:27:28.617Z,22.15
2019-04-07T10:30:03.557Z,20.60
2019-04-07T10:32:34.775Z,23.70
2019-04-07T10:35:11.275Z,19.07
2019-04-07T10:37:50.995Z,18.90
2019-04-07T10:40:34.748Z,18.73
2019-04-07T10:43:25.028Z,18.52
2019-04-07T10:46:02.411Z,17.10
2019-04-07T10:48:48.587Z,18.82
2019-04-07T10:51:28.520Z,17.20
2019-04-07T10:54:00.399Z,16.67
2019-04-07T10:56:48.019Z,17.60
2019-04-07T10:59:20.966Z,18.75
2019-04-07T11:02:08.334Z,19.30
2019-04-07T11:04:51.815Z,19.52
2019-04-07T11:07:26.647Z,16.73
2019-04-07T11:10:07.110Z,17.65
2019-04-07T11:12:41.276Z,19.62
2019-04-07T11:15:27.571Z,19.70
2019-04-07T11:18:04.727Z,18.32
2019-04-07T11:20:39.016Z,22.75
2019-04-07T11:23:19.142Z,19.10
2019-04-07T11:26:03.650Z,18.10
2019-04-07T11:28:37.988Z,18.40
2019-04-07T11:31:09.376Z,17.73
2019-04-07T11:33:50.322Z,18.15
2019-04-07T11:36:31.036Z,17.75
2019-04-07T11:39:13.217Z,16.93
2019-04-07T11:41:51.486Z,17.50
2019-04-07T11:44:32.271Z,19.45
2019-04-07T11:47:08.848Z,22.35
2019-04-07T11:49:44.716Z,18.67
2019-04-07T11:52:30.986Z,18.00
2019-04-07T11:55:18.434Z,17.87
2019-04-07T11:58:03.013Z,17.80
2019-04-07T12:00:23.748Z,17.55
2019-04-07T12:03:03.949Z,19.02
2019-04-07T12:05:44.161Z,19.62
2019-04-07T12:08:36.052Z,19.52
2019-04-07T12:11:06.248Z,20.25
2019-04-07T12:13:37.436Z,19.48
2019-04-07T12:16:18.462Z,18.30
2019-04-07T12:19:09.447Z,19.48
2019-04-07T12:21:49.375Z,18.92
2019-04-07T12:24:24.663Z,19.30
2019-04-07T12:27:10.857Z,20.82
2019-04-07T12:29:41.697Z,20.77
2019-04-07T12:32:15.899Z,20.20
2019-04-07T12:34:56.643Z,20.15
2019-04-07T12:37:44.595Z,19.02
2019-04-07T12:40:22.988Z,23.65
2019-04-07T12:43:13.204Z,19.35
2019-04-07T12:45:43.700Z,20.55
2019-04-07T12:48:19.616Z,20.37
2019-04-07T12:50:57.344Z,20.70
2019-04-07T12:53:36.124Z,17.65
2019-04-07T12:56:08.054Z,16.35
2019-04-07T12:58:44.047Z,18.25
2019-04-07T13:01:17.550Z,17.40
2019-04-07T13:03:47.284Z,21.87
2019-04-07T13:06:35.196Z,18.48
2019-04-07T13:09:28.967Z,19.77
2019-04-07T13:12:06.556Z,19.17
2019-04-07T13:14:42.797Z,17.92
2019-04-07T13:17:34.159Z,17.95
2019-04-07T13:20:02.424Z,19.12
2019-04-07T13:22:39.390Z,18.35
2019-04-07T13:25:29.264Z,16.90
2019-04-07T13:28:00.321Z,17.50
2019-04-07T13:30:44.462Z,15.83
2019-04-07T13:33:30.602Z,16.77
2019-04-07T13:36:18.505Z,16.57
2019-04-07T13:39:06.619Z,15.30
2019-04-07T13:41:44.230Z,14.35
2019-04-07T13:44:10.788Z,13.83
2019-04-07T13:47:00.613Z,15.93
2019-04-07T13:49:33.195Z,15.45
2019-04-07T13:52:19.329Z,16.07
2019-04-07T13:54:54.779Z,14.98
2019-04-07T13:57:34.963Z,13.78
2019-04-07T14:00:16.005Z,15.15
2019-04-07T14:02:53.346Z,15.75
2019-04-07T14:05:30.415Z,17.50
2019-04-07T14:08:17.918Z,14.80
2019-04-07T14:10:49.278Z,15.83
2019-04-07T14:13:23.254Z,14.13
2019-04-07T14:15:56.478Z,14.58
2019-04-07T14:18:27.805Z,15.53
2019-04-07T14:21:15.752Z,15.10
2019-04-07T14:23:55.540Z,14.07
2019-04-07T14:26:34.621Z,14.38
2019-04-07T14:29:19.510Z,14.68
2019-04-07T14:32:02.080Z,13.43
2019-04-07T14:34:49.882Z,12.73
2019-04-07T14:37:21.779Z,13.60
2019-04-07T14:39:56.651Z,12.95
2019-04-07T14:42:37.225Z,12.65
2019-04-07T14:45:09.551Z,12.73
2019-04-07T14:47:53.523Z,10.82
2019-04-07T14:50:25.308Z,11.78
2019-04-07T14:53:13.167Z,12.40
2019-04-07T14:55:53.143Z,12.13
2019-04-07T14:58:28.110Z,12.03
2019-04-07T15:01:08.452Z,11.95
2019-04-07T15:03:41.010Z,12.93
2019-04-07T15:06:10.894Z,12.20
2019-04-07T15:08:44.251Z,12.82
2019-04-07T15:11:25.007Z,12.30
2019-04-07T15:13:57.899Z,11.18
2019-04-07T15:16:27.383Z,10.90
2019-04-07T15:18:58.701Z,11.68
2019-04-07T15:21:28.261Z,11.25
2019-04-07T15:24:04.667Z,11.50
2019-04-07T15:26:34.692Z,13.05
2019-04-07T15:29:09.261Z,12.07
2019-04-07T15:31:37.450Z,12.23
2019-04-07T15:34:09.514Z,12.73
2019-04-07T15:36:38.611Z,12.82
2019-04-07T15:39:09.801Z,12.03
2019-04-07T15:41:42.503Z,12.07
2019-04-07T15:44:14.000Z,11.40
2019-04-07T15:46:42.657Z,11.78
2019-04-07T15:49:13.408Z,12.88
2019-04-07T15:51:43.252Z,13.53
2019-04-07T15:54:13.521Z,13.62
2019-04-07T15:56:48.078Z,13.83
2019-04-07T15:59:18.753Z,12.98
2019-04-07T16:01:50.012Z,12.82
2019-04-07T16:04:25.186Z,13.30
2019-04-07T16:06:51.578Z,13.45
2019-04-07T16:09:35.923Z,12.40
2019-04-07T16:11:57.453Z,12.93
2019-04-07T16:14:26.338Z,13.08
2019-04-07T16:16:59.611Z,19.23
2019-04-07T16:19:37.248Z,13.35
2019-04-07T16:22:00.022Z,12.85
2019-04-07T16:24:32.643Z,13.50
2019-04-07T16:27:05.181Z,12.82
2019-04-07T16:29:35.202Z,11.38
2019-04-07T16:32:04.875Z,13.40
2019-04-07T16:34:34.884Z,12.10
2019-04-07T16:37:06.808Z,12.58
2019-04-07T16:39:36.403Z,12.18
2019-04-07T16:42:06.478Z,11.93
2019-04-07T16:44:37.596Z,12.30
2019-04-07T16:47:17.680Z,12.23
2019-04-07T16:49:41.355Z,12.68
2019-04-07T16:52:10.159Z,14.55
2019-04-07T16:54:43.489Z,11.50
2019-04-07T16:57:11.201Z,11.70
2019-04-07T16:59:43.011Z,12.53
2019-04-07T17:02:14.507Z,12.30
2019-04-07T17:04:47.377Z,12.00
2019-04-07T17:07:21.113Z,12.73
2019-04-07T17:09:49.590Z,12.43
2019-04-07T17:12:19.238Z,11.83
2019-04-07T17:14:49.416Z,12.10
2019-04-07T17:17:21.711Z,12.67
2019-04-07T17:19:52.185Z,12.03
2019-04-07T17:22:21.733Z,11.57
2019-04-07T17:24:58.325Z,11.50
2019-04-07T17:27:27.877Z,12.33
2019-04-07T17:30:00.535Z,11.73
2019-04-07T17:32:33.074Z,10.83
2019-04-07T17:35:02.877Z,12.13
2019-04-07T17:37:32.352Z,11.30
2019-04-07T17:40:11.286Z,12.07
2019-04-07T17:42:39.843Z,11.27
2019-04-07T17:45:27.558Z,11.03
2019-04-07T17:48:06.886Z,12.50
2019-04-07T17:50:44.358Z,10.50
2019-04-07T17:53:17.439Z,11.10
2019-04-07T17:55:57.183Z,11.83
2019-04-07T17:58:38.134Z,11.33
2019-04-07T18:01:08.993Z,11.63
2019-04-07T18:03:49.671Z,11.47
2019-04-07T18:06:33.477Z,11.23
2019-04-07T18:09:12.292Z,10.50
2019-04-07T18:11:44.798Z,11.20
2019-04-07T18:14:18.096Z,10.63
2019-04-07T18:17:00.823Z,11.37
2019-04-07T18:19:36.128Z,10.40
2019-04-07T18:22:24.764Z,10.03
2019-04-07T18:25:01.864Z,10.67
2019-04-07T18:27:34.181Z,11.30
2019-04-07T18:30:08.303Z,10.97
2019-04-07T18:32:46.785Z,10.97
2019-04-07T18:35:34.775Z,9.90
2019-04-07T18:38:19.352Z,10.77
2019-04-07T18:41:01.030Z,10.77
2019-04-07T18:43:49.122Z,9.87
2019-04-07T18:46:16.823Z,10.90
2019-04-07T18:48:56.400Z,9.57
2019-04-07T18:51:47.063Z,10.43
2019-04-07T18:54:33.570Z,11.60
2019-04-07T18:57:11.886Z,9.90
2019-04-07T18:59:59.420Z,10.27
2019-04-07T19:02:33.273Z,11.47
2019-04-07T19:05:05.101Z,9.53
2019-04-07T19:07:37.906Z,9.70
2019-04-07T19:10:17.677Z,10.13
2019-04-07T19:13:10.993Z,10.30
2019-04-07T19:15:42.139Z,11.37
2019-04-07T19:18:31.281Z,9.90
2019-04-07T19:21:18.351Z,10.40
2019-04-07T19:24:08.017Z,11.13
2019-04-07T19:26:49.809Z,10.83
2019-04-07T19:29:33.722Z,10.90
2019-04-07T19:32:17.945Z,11.07
2019-04-07T19:34:57.320Z,10.47
2019-04-07T19:37:40.758Z,10.50
2019-04-07T19:40:19.150Z,11.10
2019-04-07T19:42:56.358Z,10.37
2019-04-07T19:45:43.774Z,10.70
2019-04-07T19:48:31.152Z,10.63
2019-04-07T19:51:05.086Z,10.53
2019-04-07T19:53:36.657Z,10.83
2019-04-07T19:56:16.777Z,11.10
2019-04-07T19:58:51.622Z,10.63
2019-04-07T20:01:23.382Z,10.40
2019-04-07T20:04:13.001Z,11.60
2019-04-07T20:06:44.211Z,11.67
2019-04-07T20:09:32.122Z,10.23
2019-04-07T20:12:18.460Z,10.67
2019-04-07T20:15:01.385Z,11.20
2019-04-07T20:17:31.073Z,11.30
2019-04-07T20:20:12.294Z,10.60
2019-04-07T20:23:00.333Z,10.83
2019-04-07T20:25:37.599Z,11.70
2019-04-07T20:28:08.967Z,11.63
2019-04-07T20:30:51.150Z,11.80
2019-04-07T20:33:21.671Z,11.87
2019-04-07T20:36:02.334Z,11.70
2019-04-07T20:38:33.737Z,13.60
2019-04-07T20:41:05.378Z,12.53
2019-04-07T20:43:48.648Z,12.53
2019-04-07T20:46:23.970Z,13.27
2019-04-07T20:49:13.636Z,14.03
2019-04-07T20:52:03.036Z,14.20
2019-04-07T20:54:35.408Z,14.00
2019-04-07T20:57:07.210Z,13.53
2019-04-07T20:59:50.155Z,13.47
2019-04-07T21:02:30.290Z,13.50
2019-04-07T21:05:05.230Z,13.20
2019-04-07T21:07:39.694Z,12.20
2019-04-07T21:10:13.556Z,13.23
2019-04-07T21:12:50.776Z,13.40
2019-04-07T21:15:32.367Z,14.40
2019-04-07T21:18:04.165Z,13.97
2019-04-07T21:20:36.728Z,13.80
2019-04-07T21:23:08.120Z,13.13
2019-04-07T21:25:41.687Z,14.57
2019-04-07T21:28:12.757Z,13.57
2019-04-07T21:30:56.230Z,13.63
2019-04-07T21:33:30.019Z,12.63
2019-04-07T21:36:10.496Z,12.67
2019-04-07T21:38:45.349Z,20.43
2019-04-07T21:41:16.858Z,15.07
2019-04-07T21:44:04.641Z,14.37
2019-04-07T21:46:44.659Z,14.73
2019-04-07T21:49:22.031Z,15.13
2019-04-07T21:51:55.721Z,17.10
2019-04-07T21:54:43.890Z,14.40
2019-04-07T21:57:15.236Z,15.37
2019-04-07T21:59:52.290Z,15.27
2019-04-07T22:02:32.170Z,15.83
2019-04-07T22:05:15.675Z,14.97
2019-04-07T22:07:46.834Z,15.10
2019-04-07T22:10:19.442Z,14.77
2019-04-07T22:12:48.705Z,14.97
2019-04-07T22:15:18.227Z,14.50
2019-04-07T22:17:47.901Z,15.27
2019-04-07T22:20:20.106Z,14.80
2019-04-07T22:22:51.848Z,15.83
2019-04-07T22:25:32.736Z,15.30
2019-04-07T22:28:02.230Z,15.10
2019-04-07T22:30:33.975Z,14.63
2019-04-07T22:33:04.182Z,16.00
2019-04-07T22:35:34.492Z,16.00
2019-04-07T22:38:05.222Z,15.83
2019-04-07T22:40:37.963Z,15.13
2019-04-07T22:43:05.874Z,16.47
2019-04-07T22:45:35.467Z,14.27
2019-04-07T22:48:08.121Z,14.53
2019-04-07T22:50:38.230Z,14.53
2019-04-07T22:53:09.383Z,14.93
2019-04-07T22:55:39.976Z,15.70
2019-04-07T22:58:09.554Z,15.43
2019-04-07T23:00:40.351Z,14.60
2019-04-07T23:03:12.000Z,15.83
2019-04-07T23:05:41.641Z,14.57
2019-04-07T23:08:11.212Z,15.00
2019-04-07T23:10:40.844Z,14.63
2019-04-07T23:13:11.027Z,14.50
2019-04-07T23:15:45.539Z,15.37
2019-04-07T23:18:12.028Z,17.23
2019-04-07T23:20:41.777Z,15.47
2019-04-07T23:23:11.338Z,14.83
2019-04-07T23:25:40.766Z,14.43
2019-04-07T23:28:10.367Z,13.70
2019-04-07T23:30:40.850Z,15.67
2019-04-07T23:33:10.476Z,13.93
2019-04-07T23:35:39.939Z,15.97
2019-04-07T23:38:09.390Z,15.00
2019-04-07T23:40:39.808Z,14.90
2019-04-07T23:43:09.355Z,15.50
2019-04-07T23:45:38.774Z,14.60
2019-04-07T23:48:08.407Z,15.30
2019-04-07T23:50:37.791Z,15.77
2019-04-07T23:53:43.719Z,16.73
2019-04-07T23:56:13.134Z,16.50
2019-04-07T23:58:43.438Z,17.53
